PILOTS ONLINE: 462    ATC ONLINE: 65

KCWA - Central Wisconsin Airport

Location

IATA CWA
City Mosinee
Country  United States
Latitude 44° 46' 39" N
Longitude 89° 40' 0" W
Elevation 1277 ft
Type Medium Airport

Runways

08/26 7645 ft / 150 ft
17/35 6501 ft / 150 ft

Weather

METAR
2014/07/29 13:55
KCWA 291355Z 34004KT 10SM BKN110 17/14 A3007
TAF
2014/07/29 12:24
TAF KCWA 291120Z 2912/3012 33007KT P6SM BKN100 
     FM291600 30008KT P6SM VCSH SCT050 BKN090 
      TEMPO 2918/2922 5SM -TSRA BKN040CB 
     FM300600 34005KT P6SM SCT010 SCT070

Outbound flights

Inbound flights